Time;durP1;ratioP1;P1;durP2;ratioP2;P2;SDS_P1;SDS_P2;PMS_P1;PMS_P2;Temp;Humidity;BMP_temperature;BMP_pressure;BME280_temperature;BME280_humidity;BME280_pressure;Samples;Min_cycle;Max_cycle;Signal;HPM_P1;HPM_P2
2021/10/03 00:00:31;;;;;;;1.95;0.80;;;17.20;93.40;;;;;;4996115;28;20042;-77
2021/10/03 00:02:58;;;;;;;1.27;0.80;;;17.20;93.40;;;;;;4979613;28;20035;-76
2021/10/03 00:05:25;;;;;;;1.40;0.90;;;17.20;93.40;;;;;;4990104;28;20033;-77
2021/10/03 00:07:55;;;;;;;1.40;0.80;;;17.20;93.50;;;;;;4987745;28;20117;-77
2021/10/03 00:10:22;;;;;;;1.20;0.88;;;17.20;93.50;;;;;;4982099;28;20023;-77
2021/10/03 00:12:48;;;;;;;1.00;0.75;;;17.20;93.50;;;;;;4983588;28;20037;-77
2021/10/03 00:15:16;;;;;;;3.47;0.80;;;17.30;93.50;;;;;;4981253;28;20034;-77
2021/10/03 00:17:43;;;;;;;0.70;0.68;;;17.30;93.70;;;;;;4983025;28;20045;-77
2021/10/03 00:20:12;;;;;;;1.10;0.60;;;17.30;93.40;;;;;;4983537;28;20109;-77
2021/10/03 00:22:38;;;;;;;4.00;0.80;;;17.30;93.40;;;;;;4981361;28;20058;-77
2021/10/03 00:25:06;;;;;;;2.70;0.60;;;17.20;93.30;;;;;;4982558;28;20483;-77
2021/10/03 00:27:32;;;;;;;2.57;0.90;;;17.30;93.30;;;;;;4979089;28;20027;-76
2021/10/03 00:29:57;;;;;;;0.70;0.60;;;17.30;93.40;;;;;;4981367;28;20030;-77
2021/10/03 00:32:23;;;;;;;1.05;0.70;;;17.30;93.40;;;;;;4978713;28;20121;-77
2021/10/03 00:34:49;;;;;;;1.33;0.70;;;17.30;93.30;;;;;;4976500;28;20027;-77
2021/10/03 00:37:14;;;;;;;1.02;0.70;;;17.40;93.30;;;;;;4985196;28;20029;-77
2021/10/03 00:39:40;;;;;;;1.92;0.70;;;17.40;93.30;;;;;;4982621;28;20374;-77
2021/10/03 00:42:06;;;;;;;1.10;0.70;;;17.40;93.30;;;;;;4972603;28;20058;-77
2021/10/03 00:44:32;;;;;;;1.13;0.63;;;17.40;93.50;;;;;;4976624;28;20075;-77
2021/10/03 00:46:58;;;;;;;0.70;0.70;;;17.40;93.60;;;;;;4970523;28;20031;-77
2021/10/03 00:49:24;;;;;;;1.05;0.70;;;17.40;93.40;;;;;;4983786;28;20062;-77
2021/10/03 00:51:50;;;;;;;3.17;1.00;;;17.40;93.70;;;;;;4984794;28;20035;-77
2021/10/03 00:54:15;;;;;;;1.35;0.75;;;17.40;93.50;;;;;;4995570;28;20049;-77
2021/10/03 00:56:41;;;;;;;0.80;0.60;;;17.40;93.80;;;;;;4989665;28;20054;-77
2021/10/03 00:59:07;;;;;;;1.35;0.60;;;17.40;93.50;;;;;;4984880;28;20471;-77
2021/10/03 01:01:33;;;;;;;1.40;0.60;;;17.40;93.80;;;;;;4981368;28;20035;-77
2021/10/03 01:03:59;;;;;;;2.63;0.50;;;17.40;94.10;;;;;;4992073;28;20084;-77
2021/10/03 01:06:24;;;;;;;2.33;0.80;;;17.40;94.00;;;;;;4998805;28;20076;-77
2021/10/03 01:08:50;;;;;;;1.42;0.60;;;17.40;94.00;;;;;;4987112;28;20475;-77
2021/10/03 01:11:16;;;;;;;2.47;0.65;;;17.30;94.40;;;;;;4995500;28;20030;-76
2021/10/03 01:13:46;;;;;;;0.50;0.40;;;17.30;94.10;;;;;;4973411;28;20049;-77
2021/10/03 01:16:11;;;;;;;1.83;0.50;;;17.30;94.20;;;;;;4988873;28;20494;-77
2021/10/03 01:18:37;;;;;;;3.08;0.65;;;17.30;94.10;;;;;;4987886;28;20125;-77
2021/10/03 01:21:08;;;;;;;1.00;0.60;;;17.30;94.10;;;;;;4994736;28;20042;-77
2021/10/03 01:23:34;;;;;;;0.80;0.70;;;17.30;94.10;;;;;;4983381;28;20035;-77
2021/10/03 01:26:00;;;;;;;1.67;0.40;;;17.40;94.10;;;;;;4985561;28;20117;-77
2021/10/03 01:28:26;;;;;;;0.55;0.52;;;17.40;94.10;;;;;;4983180;28;20526;-77
2021/10/03 01:30:53;;;;;;;0.50;0.40;;;17.40;94.00;;;;;;4971320;28;20050;-77
2021/10/03 01:33:22;;;;;;;0.90;0.50;;;17.40;94.00;;;;;;4985163;28;20085;-77
2021/10/03 01:35:48;;;;;;;0.40;0.32;;;17.40;94.00;;;;;;4982413;28;20039;-77
2021/10/03 01:38:18;;;;;;;0.82;0.60;;;17.40;93.90;;;;;;4987446;28;20038;-77
2021/10/03 01:40:45;;;;;;;0.40;0.22;;;17.40;94.10;;;;;;4984785;28;20058;-77
2021/10/03 01:43:12;;;;;;;0.40;0.40;;;17.40;94.10;;;;;;4985672;28;20034;-76
2021/10/03 01:45:38;;;;;;;0.50;0.30;;;17.40;94.10;;;;;;4987842;28;20034;-77
2021/10/03 01:48:19;;;;;;;0.52;0.40;;;17.40;94.30;;;;;;4990908;28;20036;-77
2021/10/03 01:50:45;;;;;;;1.75;0.40;;;17.40;94.30;;;;;;4987282;28;20019;-77
2021/10/03 01:53:13;;;;;;;1.08;0.35;;;17.40;94.40;;;;;;4986397;28;20034;-77
2021/10/03 01:55:39;;;;;;;0.30;0.30;;;17.40;94.50;;;;;;4973725;28;20366;-77
2021/10/03 01:58:07;;;;;;;0.40;0.40;;;17.30;94.50;;;;;;4990616;28;20034;-77
2021/10/03 02:00:33;;;;;;;0.32;0.25;;;17.30;94.60;;;;;;4991642;28;20049;-77
2021/10/03 02:03:02;;;;;;;1.17;0.40;;;17.30;94.60;;;;;;4989921;28;20031;-77
2021/10/03 02:05:37;;;;;;;0.50;0.30;;;17.30;94.60;;;;;;4988994;28;20026;-77
2021/10/03 02:08:05;;;;;;;0.28;0.20;;;17.30;94.60;;;;;;4996644;28;20536;-77
2021/10/03 02:10:31;;;;;;;0.32;0.25;;;17.30;94.60;;;;;;4993578;28;20373;-77
2021/10/03 02:12:57;;;;;;;0.20;0.20;;;17.30;94.60;;;;;;4986731;28;20037;-77
2021/10/03 02:15:22;;;;;;;0.47;0.32;;;17.30;94.60;;;;;;4989732;28;20034;-77
2021/10/03 02:17:48;;;;;;;0.75;0.40;;;17.30;94.60;;;;;;4985755;28;20495;-77
2021/10/03 02:20:17;;;;;;;0.50;0.30;;;17.30;94.60;;;;;;4986013;28;20030;-77
2021/10/03 02:22:43;;;;;;;;;;;17.30;94.60;;;;;;4990221;28;20075;-77
2021/10/03 02:25:09;;;;;;;2.90;0.40;;;17.30;94.60;;;;;;4987840;28;19925;-77
2021/10/03 02:27:35;;;;;;;0.43;0.30;;;17.30;94.60;;;;;;4986360;28;20030;-77
2021/10/03 02:30:03;;;;;;;1.30;0.30;;;17.30;94.60;;;;;;4983956;28;20053;-77
2021/10/03 02:32:29;;;;;;;0.30;0.30;;;17.30;94.60;;;;;;4986862;28;20451;-77
2021/10/03 02:34:55;;;;;;;2.03;0.30;;;17.30;94.50;;;;;;4983460;28;20031;-77
2021/10/03 02:37:22;;;;;;;1.33;0.50;;;17.30;94.40;;;;;;4978368;28;20042;-77
2021/10/03 02:39:47;;;;;;;0.73;0.25;;;17.40;94.30;;;;;;4989283;28;20080;-77
2021/10/03 02:42:13;;;;;;;2.38;0.50;;;17.40;94.20;;;;;;4984197;28;20043;-77
2021/10/03 02:44:39;;;;;;;0.70;0.22;;;17.40;94.10;;;;;;4989391;28;20022;-75
2021/10/03 02:47:11;;;;;;;0.73;0.40;;;17.40;94.00;;;;;;4987739;28;20475;-75
2021/10/03 02:49:41;;;;;;;0.25;0.20;;;17.50;94.10;;;;;;4977849;28;20414;-75
2021/10/03 02:52:09;;;;;;;2.63;0.30;;;17.50;94.00;;;;;;4978813;28;20058;-75
2021/10/03 02:54:35;;;;;;;0.32;0.25;;;17.50;94.00;;;;;;4987758;28;20034;-75
2021/10/03 02:57:01;;;;;;;1.17;0.40;;;17.50;94.00;;;;;;4989238;28;20037;-75
2021/10/03 02:59:27;;;;;;;0.60;0.20;;;17.50;93.90;;;;;;4991400;28;20125;-75
2021/10/03 03:01:52;;;;;;;1.25;0.40;;;17.50;93.80;;;;;;4982790;28;20457;-75
2021/10/03 03:04:18;;;;;;;2.63;0.63;;;17.50;93.70;;;;;;4991861;28;20027;-75
2021/10/03 03:06:43;;;;;;;0.73;0.50;;;17.50;93.60;;;;;;4985832;28;20034;-75
2021/10/03 03:09:09;;;;;;;1.23;0.65;;;17.50;93.30;;;;;;4989364;28;20049;-75
2021/10/03 03:11:35;;;;;;;1.08;0.75;;;17.60;93.30;;;;;;4989154;28;20114;-75
2021/10/03 03:14:00;;;;;;;1.10;0.60;;;17.60;93.00;;;;;;4986779;28;20038;-75
2021/10/03 03:16:26;;;;;;;2.38;0.73;;;17.60;92.90;;;;;;4970272;28;20038;-75
2021/10/03 03:18:51;;;;;;;1.63;0.80;;;17.60;92.70;;;;;;4980597;28;20035;-75
2021/10/03 03:21:17;;;;;;;1.05;0.90;;;17.70;92.50;;;;;;4982497;28;20110;-75
2021/10/03 03:23:43;;;;;;;2.30;1.08;;;17.70;92.30;;;;;;4981015;28;20030;-76
2021/10/03 03:26:09;;;;;;;3.58;1.10;;;17.70;92.20;;;;;;4984515;28;20083;-76
2021/10/03 03:28:35;;;;;;;3.65;1.40;;;17.70;92.10;;;;;;4978673;28;20127;-76
2021/10/03 03:31:00;;;;;;;2.60;1.20;;;17.70;92.00;;;;;;4970859;28;20062;-76
2021/10/03 03:33:27;;;;;;;1.77;1.10;;;17.70;91.90;;;;;;4987086;28;20042;-76
2021/10/03 03:35:53;;;;;;;3.20;1.50;;;17.70;91.60;;;;;;4987222;28;20062;-76
2021/10/03 03:38:19;;;;;;;3.38;1.60;;;17.70;91.50;;;;;;4980835;28;20089;-77
2021/10/03 03:40:45;;;;;;;2.78;1.50;;;17.70;91.50;;;;;;4978880;28;20102;-78
2021/10/03 03:43:10;;;;;;;2.95;1.80;;;17.80;91.20;;;;;;4980607;28;20030;-77
2021/10/03 03:45:36;;;;;;;2.08;1.60;;;17.80;91.10;;;;;;4980707;28;20033;-76
2021/10/03 03:48:02;;;;;;;3.13;1.80;;;17.70;91.00;;;;;;4982941;28;20043;-76
2021/10/03 03:50:31;;;;;;;6.03;1.80;;;17.80;91.10;;;;;;4985753;28;20052;-75
2021/10/03 03:52:57;;;;;;;4.47;2.20;;;17.80;91.10;;;;;;4981319;28;20679;-75
2021/10/03 03:55:23;;;;;;;3.35;2.03;;;17.80;91.10;;;;;;4981420;28;20038;-75
2021/10/03 03:57:51;;;;;;;2.88;1.90;;;17.70;91.10;;;;;;4984207;28;20039;-75
2021/10/03 04:00:17;;;;;;;3.88;2.00;;;17.70;91.20;;;;;;4976022;28;20453;-77
2021/10/03 04:02:43;;;;;;;4.53;2.10;;;17.70;91.20;;;;;;4987074;28;20030;-78
2021/10/03 04:05:08;;;;;;;3.30;2.45;;;17.70;90.70;;;;;;4984930;28;20646;-77
2021/10/03 04:07:34;;;;;;;7.20;2.80;;;17.70;90.90;;;;;;4977418;28;20035;-77
2021/10/03 04:10:00;;;;;;;4.40;2.60;;;17.60;91.10;;;;;;4989959;28;20030;-77
2021/10/03 04:12:26;;;;;;;5.50;2.45;;;17.60;91.10;;;;;;4986137;28;20034;-77
2021/10/03 04:14:51;;;;;;;8.88;2.75;;;17.60;91.10;;;;;;4984813;28;20395;-77
2021/10/03 04:17:17;;;;;;;7.40;2.90;;;17.60;91.00;;;;;;4988861;28;20437;-78
2021/10/03 04:19:43;;;;;;;3.97;3.00;;;17.60;91.00;;;;;;4983240;28;20030;-77
2021/10/03 04:22:08;;;;;;;3.42;2.40;;;17.60;91.10;;;;;;4982962;28;20035;-77
2021/10/03 04:24:34;;;;;;;4.78;2.67;;;17.60;90.90;;;;;;5021116;28;20042;-78
2021/10/03 04:27:00;;;;;;;4.72;2.92;;;17.60;90.90;;;;;;4980119;28;20035;-78
2021/10/03 04:29:25;;;;;;;5.10;2.85;;;17.50;90.80;;;;;;4986980;28;20026;-76
2021/10/03 04:31:51;;;;;;;3.40;2.92;;;17.60;90.80;;;;;;4988421;28;20062;-76
2021/10/03 04:34:16;;;;;;;5.13;2.97;;;17.60;90.80;;;;;;4989760;28;20090;-76
2021/10/03 04:36:42;;;;;;;5.10;2.70;;;17.50;90.80;;;;;;4982982;28;20121;-76
2021/10/03 04:39:08;;;;;;;3.33;2.67;;;17.50;90.60;;;;;;5008141;28;20034;-75
2021/10/03 04:41:33;;;;;;;4.80;2.80;;;17.50;90.80;;;;;;4981146;28;20045;-76
2021/10/03 04:43:59;;;;;;;4.03;3.33;;;17.50;90.70;;;;;;4981674;28;20057;-75
2021/10/03 04:46:25;;;;;;;7.57;2.88;;;17.50;90.70;;;;;;4978559;28;20490;-75
2021/10/03 04:48:50;;;;;;;5.38;2.92;;;17.50;90.60;;;;;;4983682;28;20027;-75
2021/10/03 04:51:16;;;;;;;7.45;2.97;;;17.50;90.40;;;;;;4974551;28;20038;-75
2021/10/03 04:53:42;;;;;;;4.78;3.05;;;17.60;90.40;;;;;;4982726;28;20536;-75
2021/10/03 04:56:08;;;;;;;3.88;3.17;;;17.60;90.50;;;;;;4976339;28;20050;-75
2021/10/03 04:58:34;;;;;;;5.47;3.10;;;17.60;90.40;;;;;;5007843;28;20039;-75
2021/10/03 05:01:00;;;;;;;4.60;3.03;;;17.60;90.30;;;;;;4984737;28;20050;-75
2021/10/03 05:03:25;;;;;;;8.73;3.15;;;17.60;90.40;;;;;;4986872;28;20030;-74
2021/10/03 05:05:51;;;;;;;4.95;3.10;;;17.60;90.50;;;;;;4982491;28;20641;-75
2021/10/03 05:08:18;;;;;;;5.43;3.10;;;17.50;90.40;;;;;;5032263;28;20062;-77
2021/10/03 05:10:44;;;;;;;6.63;3.10;;;17.50;90.30;;;;;;4983613;28;20030;-77
2021/10/03 05:13:10;;;;;;;4.53;3.05;;;17.50;90.40;;;;;;4987033;28;20061;-77
2021/10/03 05:15:36;;;;;;;4.40;3.03;;;17.50;90.30;;;;;;4978699;28;20070;-77
2021/10/03 05:18:02;;;;;;;8.95;3.30;;;17.50;90.00;;;;;;4985869;28;20502;-77
2021/10/03 05:20:27;;;;;;;7.13;3.30;;;17.50;89.90;;;;;;4980065;28;20054;-77
2021/10/03 05:22:53;;;;;;;3.67;2.90;;;17.60;90.00;;;;;;4977921;28;20058;-78
2021/10/03 05:25:18;;;;;;;6.55;2.80;;;17.50;90.00;;;;;;4978538;28;20053;-78
2021/10/03 05:27:44;;;;;;;5.18;3.03;;;17.50;90.00;;;;;;4985893;28;20031;-78
2021/10/03 05:30:10;;;;;;;7.45;3.03;;;17.50;89.80;;;;;;4984465;28;20030;-78
2021/10/03 05:32:36;;;;;;;5.00;3.20;;;17.50;89.70;;;;;;4981391;28;20031;-78
2021/10/03 05:35:02;;;;;;;5.15;3.22;;;17.50;89.20;;;;;;4985000;28;20022;-78
2021/10/03 05:37:28;;;;;;;6.35;3.30;;;17.60;88.90;;;;;;4985583;28;20023;-78
2021/10/03 05:39:55;;;;;;;4.28;3.10;;;17.60;88.90;;;;;;4981730;28;20027;-78
2021/10/03 05:42:20;;;;;;;5.50;3.40;;;17.60;89.60;;;;;;4987517;28;20041;-77
2021/10/03 05:44:46;;;;;;;4.20;3.15;;;17.60;89.00;;;;;;4982630;28;20425;-78
2021/10/03 05:47:12;;;;;;;5.57;3.50;;;17.60;88.80;;;;;;4996405;28;20022;-78
2021/10/03 05:49:37;;;;;;;4.30;2.92;;;17.60;89.10;;;;;;4982721;28;20038;-78
2021/10/03 05:52:03;;;;;;;4.82;3.58;;;17.60;88.90;;;;;;4987008;28;20038;-78
2021/10/03 05:54:29;;;;;;;5.30;3.40;;;17.60;89.00;;;;;;4970259;28;20561;-78
2021/10/03 05:56:54;;;;;;;6.85;3.10;;;17.70;89.00;;;;;;4989557;28;20154;-78
2021/10/03 05:59:20;;;;;;;4.75;3.22;;;17.70;89.10;;;;;;4989298;28;20395;-78
2021/10/03 06:01:45;;;;;;;7.55;3.35;;;17.70;88.80;;;;;;4993470;28;20039;-77
2021/10/03 06:04:11;;;;;;;6.28;3.65;;;17.70;89.10;;;;;;4982215;28;20027;-77
2021/10/03 06:06:37;;;;;;;10.05;3.50;;;17.70;89.90;;;;;;4985424;28;20605;-77
2021/10/03 06:09:03;;;;;;;3.83;3.40;;;17.70;90.00;;;;;;4980492;28;20062;-77
2021/10/03 06:11:28;;;;;;;7.47;3.70;;;17.60;90.10;;;;;;4983409;28;20482;-77
2021/10/03 06:13:54;;;;;;;11.55;4.50;;;17.60;90.30;;;;;;4984991;28;20079;-77
2021/10/03 06:16:20;;;;;;;6.22;3.50;;;17.60;90.50;;;;;;4989212;28;20483;-77
2021/10/03 06:18:45;;;;;;;6.25;3.80;;;17.50;90.70;;;;;;4991447;28;20042;-77
2021/10/03 06:21:13;;;;;;;8.85;4.07;;;17.50;90.80;;;;;;4985504;28;20372;-77
2021/10/03 06:23:43;;;;;;;5.53;3.60;;;17.50;91.00;;;;;;4981534;28;20369;-77
2021/10/03 06:26:11;;;;;;;6.38;3.88;;;17.40;91.00;;;;;;5003709;28;20298;-77
2021/10/03 06:28:37;;;;;;;7.55;3.97;;;17.40;91.20;;;;;;4985005;28;20044;-77
2021/10/03 06:31:04;;;;;;;5.95;4.00;;;17.40;91.30;;;;;;4987746;28;20027;-77
2021/10/03 06:33:33;;;;;;;7.82;3.97;;;17.40;91.30;;;;;;4990757;28;20060;-77
2021/10/03 06:35:59;;;;;;;6.63;3.70;;;17.40;91.30;;;;;;4989468;28;20482;-77
2021/10/03 06:38:25;;;;;;;8.35;4.65;;;17.40;91.10;;;;;;4984826;28;20034;-77
2021/10/03 06:40:51;;;;;;;5.55;3.40;;;17.40;91.10;;;;;;4984906;28;20046;-77
2021/10/03 06:43:16;;;;;;;4.68;4.05;;;17.50;91.00;;;;;;4989667;28;20433;-78
2021/10/03 06:45:42;;;;;;;5.32;3.95;;;17.50;90.90;;;;;;4986516;28;22229;-77
2021/10/03 06:48:12;;;;;;;4.72;4.20;;;17.50;90.90;;;;;;4953811;28;20033;-77
2021/10/03 06:50:38;;;;;;;5.90;4.00;;;17.50;90.90;;;;;;4982029;28;20030;-78
2021/10/03 06:53:04;;;;;;;4.78;3.95;;;17.60;91.00;;;;;;4978365;28;20018;-75
2021/10/03 06:55:30;;;;;;;7.32;3.95;;;17.60;90.90;;;;;;4977975;28;20034;-75
2021/10/03 06:57:57;;;;;;;7.22;4.40;;;17.60;90.80;;;;;;4972467;28;20034;-75
2021/10/03 07:00:23;;;;;;;7.00;4.65;;;17.60;90.80;;;;;;4976328;28;20763;-78
2021/10/03 07:02:49;;;;;;;7.97;4.35;;;17.60;90.80;;;;;;4978732;28;20034;-78
2021/10/03 07:05:15;;;;;;;6.70;4.75;;;17.60;90.90;;;;;;4972625;28;20056;-77
2021/10/03 07:07:40;;;;;;;6.75;5.10;;;17.60;91.00;;;;;;4995241;28;20026;-77
2021/10/03 07:10:07;;;;;;;6.50;4.85;;;17.60;91.20;;;;;;4991984;28;20026;-77
2021/10/03 07:12:32;;;;;;;12.48;4.82;;;17.60;91.20;;;;;;4998569;28;20030;-76
2021/10/03 07:14:58;;;;;;;4.97;4.38;;;17.60;91.20;;;;;;4985360;28;20510;-77
2021/10/03 07:17:23;;;;;;;10.40;5.40;;;17.60;91.30;;;;;;4983029;28;20054;-77
2021/10/03 07:19:49;;;;;;;7.38;4.78;;;17.60;91.30;;;;;;4988210;28;20046;-77
2021/10/03 07:22:15;;;;;;;7.13;5.30;;;17.70;91.30;;;;;;4970198;28;20031;-77
2021/10/03 07:24:40;;;;;;;7.90;4.95;;;17.70;91.30;;;;;;4982402;28;20460;-77
2021/10/03 07:27:07;;;;;;;7.45;4.80;;;17.70;91.30;;;;;;4989214;28;20034;-77
2021/10/03 07:29:33;;;;;;;8.50;4.90;;;17.70;91.50;;;;;;4988302;28;20575;-77
2021/10/03 07:31:59;;;;;;;8.02;5.13;;;17.70;91.50;;;;;;4987834;28;20509;-78
2021/10/03 07:34:25;;;;;;;7.30;4.85;;;17.70;91.50;;;;;;4987962;28;20030;-77
2021/10/03 07:36:51;;;;;;;9.32;5.15;;;17.70;91.70;;;;;;4983892;28;20060;-78
2021/10/03 07:39:16;;;;;;;14.38;5.55;;;17.70;91.70;;;;;;4964957;28;20042;-77
2021/10/03 07:41:42;;;;;;;8.70;5.40;;;17.70;91.90;;;;;;4989733;28;20117;-79
2021/10/03 07:44:08;;;;;;;8.52;6.00;;;17.70;92.30;;;;;;4991911;28;20497;-79
2021/10/03 07:46:33;;;;;;;8.45;5.53;;;17.70;92.40;;;;;;4985681;28;20027;-77
2021/10/03 07:48:59;;;;;;;8.15;5.72;;;17.70;92.50;;;;;;4989745;28;20031;-78
2021/10/03 07:51:24;;;;;;;8.48;5.50;;;17.60;92.60;;;;;;4987993;28;20034;-78
2021/10/03 07:53:50;;;;;;;9.20;6.05;;;17.60;92.70;;;;;;4995281;28;20495;-78
2021/10/03 07:56:16;;;;;;;10.90;6.70;;;17.60;92.70;;;;;;4990745;28;20121;-77
2021/10/03 07:58:42;;;;;;;9.25;6.20;;;17.60;92.80;;;;;;4994379;28;20087;-79
2021/10/03 08:01:08;;;;;;;8.35;6.20;;;17.60;93.00;;;;;;4989899;28;20684;-78
2021/10/03 08:03:33;;;;;;;10.55;5.65;;;17.60;93.10;;;;;;4990272;28;20040;-78
2021/10/03 08:05:59;;;;;;;8.10;5.93;;;17.60;93.20;;;;;;4988009;28;20033;-78
2021/10/03 08:08:25;;;;;;;9.85;6.70;;;17.50;93.20;;;;;;5008269;28;20387;-78
2021/10/03 08:10:50;;;;;;;7.70;6.10;;;17.50;93.20;;;;;;4968654;28;20388;-77
2021/10/03 08:13:16;;;;;;;7.32;5.95;;;17.50;93.20;;;;;;4970228;28;20037;-77
2021/10/03 08:15:42;;;;;;;7.60;6.13;;;17.60;93.20;;;;;;4983940;28;20027;-79
2021/10/03 08:18:10;;;;;;;10.15;6.65;;;17.60;93.30;;;;;;4985562;28;20113;-77
2021/10/03 08:20:37;;;;;;;11.32;6.70;;;17.60;93.30;;;;;;4981764;28;20030;-77
2021/10/03 08:23:03;;;;;;;8.60;6.75;;;17.60;93.30;;;;;;4984601;28;20113;-78
2021/10/03 08:25:28;;;;;;;9.05;6.28;;;17.60;93.30;;;;;;4978604;28;20115;-77
2021/10/03 08:27:54;;;;;;;8.95;6.20;;;17.60;93.40;;;;;;4984951;28;20030;-78
2021/10/03 08:30:20;;;;;;;11.52;6.53;;;17.60;93.30;;;;;;4994155;28;20090;-78
2021/10/03 08:32:46;;;;;;;9.55;6.15;;;17.60;93.40;;;;;;4984697;28;20118;-78
2021/10/03 08:35:12;;;;;;;9.15;5.80;;;17.60;93.40;;;;;;4991141;28;20826;-78
2021/10/03 08:37:38;;;;;;;6.72;5.65;;;17.60;93.40;;;;;;4984249;28;20067;-79
2021/10/03 08:40:06;;;;;;;9.15;6.30;;;17.70;93.30;;;;;;4978412;28;20046;-79
2021/10/03 08:42:32;;;;;;;9.77;6.30;;;17.70;93.30;;;;;;4976722;28;20027;-79
2021/10/03 08:44:58;;;;;;;8.60;5.80;;;17.70;93.20;;;;;;4969703;28;20429;-79
2021/10/03 08:47:25;;;;;;;9.80;6.40;;;17.80;93.10;;;;;;4983474;28;20041;-79
2021/10/03 08:49:57;;;;;;;10.75;5.85;;;17.80;93.20;;;;;;4980719;28;20486;-79
2021/10/03 08:52:26;;;;;;;9.70;5.90;;;17.80;93.10;;;;;;4993972;28;20035;-79
2021/10/03 08:54:52;;;;;;;7.45;5.88;;;17.80;92.90;;;;;;4987949;28;20418;-79
2021/10/03 08:57:18;;;;;;;7.95;5.78;;;17.80;93.00;;;;;;5013844;28;20106;-78
2021/10/03 09:00:06;;;;;;;7.65;5.88;;;17.90;93.00;;;;;;4981121;28;20054;-78
2021/10/03 09:03:08;;;;;;;6.60;5.63;;;17.90;93.10;;;;;;4983104;28;20064;-78
2021/10/03 09:05:37;;;;;;;6.47;5.45;;;17.90;93.00;;;;;;5034382;28;20470;-78
2021/10/03 09:08:09;;;;;;;9.50;5.40;;;17.90;92.90;;;;;;4992813;28;20481;-79
2021/10/03 09:10:47;;;;;;;8.88;6.15;;;17.90;93.00;;;;;;4981928;28;20048;-79
2021/10/03 09:13:14;;;;;;;9.70;4.87;;;17.90;93.00;;;;;;4991347;28;20026;-79
2021/10/03 09:15:40;;;;;;;8.57;5.43;;;17.90;92.90;;;;;;4989446;28;20285;-79
2021/10/03 09:18:07;;;;;;;5.38;4.78;;;18.00;92.80;;;;;;4984714;28;20049;-79
2021/10/03 09:20:34;;;;;;;8.75;5.72;;;18.00;92.80;;;;;;4984895;28;20046;-78
2021/10/03 09:23:05;;;;;;;9.90;5.30;;;18.00;92.80;;;;;;4990477;28;20092;-79
2021/10/03 09:25:41;;;;;;;8.52;5.10;;;18.00;92.90;;;;;;4990982;28;20034;-79
2021/10/03 09:28:16;;;;;;;7.10;4.93;;;18.00;92.90;;;;;;4992027;28;20057;-78
2021/10/03 09:30:54;;;;;;;7.47;5.55;;;18.00;92.80;;;;;;5002432;28;20026;-77
2021/10/03 09:33:20;;;;;;;9.27;5.30;;;18.10;92.70;;;;;;4990443;28;20390;-77
2021/10/03 09:35:58;;;;;;;10.73;5.10;;;18.00;92.60;;;;;;4990216;28;20422;-76
2021/10/03 09:38:28;;;;;;;6.07;5.22;;;18.10;92.40;;;;;;5028624;28;20030;-77
2021/10/03 09:41:01;;;;;;;7.50;5.57;;;18.10;92.40;;;;;;4988228;28;20042;-77
2021/10/03 09:44:00;;;;;;;5.70;5.00;;;18.10;92.60;;;;;;4993025;28;20027;-76
2021/10/03 09:46:36;;;;;;;6.50;4.90;;;18.10;92.60;;;;;;5003067;28;20031;-77
2021/10/03 09:49:05;;;;;;;5.35;4.75;;;18.10;92.40;;;;;;5000367;28;20487;-77
2021/10/03 09:51:31;;;;;;;7.25;5.45;;;18.10;92.50;;;;;;5002836;28;20814;-77
2021/10/03 09:53:57;;;;;;;7.60;5.05;;;18.10;92.50;;;;;;5000160;28;20041;-77
2021/10/03 09:56:23;;;;;;;8.88;5.82;;;18.10;92.80;;;;;;5001964;28;20035;-78
2021/10/03 09:58:51;;;;;;;8.80;5.97;;;18.10;93.00;;;;;;5004434;28;20095;-77
2021/10/03 10:01:16;;;;;;;10.90;5.70;;;18.00;93.30;;;;;;4988865;28;20157;-77
2021/10/03 10:03:43;;;;;;;9.93;6.47;;;18.00;93.40;;;;;;4998780;28;20045;-78
2021/10/03 10:06:09;;;;;;;13.82;6.95;;;17.90;93.70;;;;;;5002907;28;20394;-78
2021/10/03 10:08:38;;;;;;;10.32;6.85;;;17.90;93.80;;;;;;4998898;28;20030;-79
2021/10/03 10:11:15;;;;;;;8.25;6.13;;;17.90;94.10;;;;;;5002405;28;20071;-79
2021/10/03 10:13:47;;;;;;;9.68;6.57;;;17.90;94.20;;;;;;5001864;28;20016;-79
2021/10/03 10:16:34;;;;;;;8.52;6.22;;;17.80;94.20;;;;;;5004262;28;20026;-77
2021/10/03 10:19:32;;;;;;;9.73;5.72;;;17.80;94.40;;;;;;5005540;28;20022;-76
2021/10/03 10:22:19;;;;;;;8.85;5.00;;;17.80;94.40;;;;;;5012962;28;20097;-77
2021/10/03 10:24:49;;;;;;;6.38;3.95;;;17.80;94.30;;;;;;4995121;28;20027;-78
2021/10/03 10:27:21;;;;;;;4.55;3.30;;;17.70;94.10;;;;;;4996690;28;20031;-79
2021/10/03 10:29:59;;;;;;;4.10;3.22;;;17.60;94.00;;;;;;4999103;28;20024;-79
2021/10/03 10:32:30;;;;;;;3.75;3.35;;;17.60;94.00;;;;;;4996381;28;20502;-79
2021/10/03 10:35:11;;;;;;;7.70;3.42;;;17.60;94.00;;;;;;4999868;28;20101;-78
2021/10/03 10:37:49;;;;;;;3.00;2.70;;;17.50;93.90;;;;;;4999399;28;20041;-76
2021/10/03 10:40:24;;;;;;;3.73;2.57;;;17.50;93.90;;;;;;4997738;28;20027;-77
2021/10/03 10:43:03;;;;;;;2.92;2.30;;;17.50;93.90;;;;;;5007386;28;20032;-77
2021/10/03 10:45:41;;;;;;;2.85;2.08;;;17.50;93.70;;;;;;4992311;28;20105;-76
2021/10/03 10:48:10;;;;;;;2.33;2.00;;;17.50;93.70;;;;;;5047374;28;20048;-76
2021/10/03 10:51:10;;;;;;;2.47;2.22;;;17.50;93.70;;;;;;4999732;28;20062;-76
2021/10/03 10:53:36;;;;;;;2.67;2.47;;;17.50;93.60;;;;;;4997834;28;20474;-75
2021/10/03 10:56:17;;;;;;;2.65;2.30;;;17.50;93.60;;;;;;4993450;28;20055;-75
2021/10/03 10:58:51;;;;;;;3.13;2.53;;;17.50;93.60;;;;;;4998015;28;20037;-75
2021/10/03 11:01:24;;;;;;;2.85;2.55;;;17.50;93.50;;;;;;4995773;28;20046;-75
2021/10/03 11:03:52;;;;;;;4.13;2.90;;;17.50;93.60;;;;;;4992670;28;20035;-75
2021/10/03 11:06:21;;;;;;;2.30;2.10;;;17.50;93.60;;;;;;4988029;28;20900;-75
2021/10/03 11:09:10;;;;;;;4.03;2.60;;;17.50;93.60;;;;;;4989100;28;20433;-75
2021/10/03 11:11:37;;;;;;;;;;;17.60;93.60;;;;;;4994532;28;20041;-75
2021/10/03 11:14:06;;;;;;;2.15;1.95;;;17.50;93.40;;;;;;5001640;28;19912;-75
2021/10/03 11:16:49;;;;;;;4.72;1.73;;;17.50;93.50;;;;;;4998373;28;20029;-75
2021/10/03 11:19:17;;;;;;;2.78;1.88;;;17.50;93.50;;;;;;4997979;28;20030;-76
2021/10/03 11:21:47;;;;;;;2.70;1.90;;;17.50;93.50;;;;;;4997519;28;20108;-76
2021/10/03 11:24:22;;;;;;;2.53;1.52;;;17.50;93.40;;;;;;4994253;28;20034;-76
2021/10/03 11:26:55;;;;;;;2.80;1.70;;;17.60;93.50;;;;;;4992331;28;20114;-75
2021/10/03 11:29:29;;;;;;;2.15;1.73;;;17.60;93.40;;;;;;4995683;28;20656;-75
2021/10/03 11:32:04;;;;;;;1.95;1.77;;;17.60;93.40;;;;;;5007993;28;20045;-75
2021/10/03 11:34:38;;;;;;;2.88;1.52;;;17.60;93.40;;;;;;5009657;28;20030;-75
2021/10/03 11:37:07;;;;;;;2.33;1.52;;;17.70;93.40;;;;;;5008883;28;20132;-75
2021/10/03 11:39:51;;;;;;;2.90;1.77;;;17.70;93.40;;;;;;4998160;28;20113;-75
2021/10/03 11:42:34;;;;;;;3.17;1.42;;;17.70;93.30;;;;;;5000295;28;20038;-75
2021/10/03 11:45:10;;;;;;;2.30;1.23;;;17.80;93.20;;;;;;4996495;28;20032;-75
2021/10/03 11:47:47;;;;;;;1.98;1.60;;;17.70;93.20;;;;;;4997884;28;20029;-75
2021/10/03 11:50:23;;;;;;;2.53;1.70;;;17.80;93.30;;;;;;4984077;28;20031;-75
2021/10/03 11:52:50;;;;;;;2.03;1.83;;;17.80;93.30;;;;;;4982872;28;20031;-75
2021/10/03 11:55:23;;;;;;;2.42;1.88;;;17.80;93.20;;;;;;4992547;28;20041;-74
2021/10/03 11:57:50;;;;;;;2.40;1.83;;;17.90;93.30;;;;;;4984839;28;20058;-74
2021/10/03 12:00:20;;;;;;;2.63;2.08;;;17.90;93.20;;;;;;4982267;28;20042;-75
2021/10/03 12:02:55;;;;;;;2.70;2.20;;;17.90;93.30;;;;;;5003508;28;20046;-78
2021/10/03 12:05:24;;;;;;;4.70;2.53;;;18.00;93.40;;;;;;4996711;28;20033;-78
2021/10/03 12:08:02;;;;;;;;;;;18.10;93.20;;;;;;4987612;28;20045;-77
2021/10/03 12:10:48;;;;;;;;;;;18.10;93.10;;;;;;4983013;28;20420;-77
2021/10/03 12:13:20;;;;;;;;;;;18.10;93.10;;;;;;5009044;28;19910;-79
2021/10/03 12:16:12;;;;;;;;;;;18.10;93.10;;;;;;4993932;28;20372;-79
2021/10/03 12:18:41;;;;;;;;;;;18.10;93.20;;;;;;5016438;28;20354;-80
2021/10/03 12:21:07;;;;;;;;;;;18.20;93.30;;;;;;5003244;28;19913;-78
2021/10/03 12:23:39;;;;;;;;;;;18.20;93.40;;;;;;5001976;28;19921;-78
2021/10/03 12:26:23;;;;;;;;;;;18.20;93.50;;;;;;4991223;28;19964;-77
2021/10/03 12:29:09;;;;;;;;;;;18.30;93.60;;;;;;4996274;28;20369;-78
2021/10/03 12:31:37;;;;;;;;;;;18.30;93.80;;;;;;4976181;28;19916;-78
2021/10/03 12:34:26;;;;;;;;;;;18.40;93.80;;;;;;4995456;28;19944;-77
2021/10/03 12:36:55;;;;;;;;;;;18.40;93.70;;;;;;5003758;28;19909;-77
2021/10/03 12:39:26;;;;;;;;;;;18.40;93.80;;;;;;4998125;28;19952;-77
2021/10/03 12:41:55;;;;;;;;;;;18.40;93.80;;;;;;4997852;28;19917;-77
2021/10/03 12:44:24;;;;;;;;;;;18.50;93.80;;;;;;4997496;28;19906;-80
2021/10/03 12:46:49;;;;;;;;;;;18.50;93.80;;;;;;4989883;28;20415;-78
2021/10/03 12:49:14;;;;;;;;;;;18.50;93.80;;;;;;4991875;28;19914;-79
2021/10/03 12:51:40;;;;;;;;;;;18.50;93.80;;;;;;4994115;28;19958;-78
2021/10/03 12:54:05;;;;;;;;;;;18.50;93.70;;;;;;5003471;28;20409;-79
2021/10/03 12:56:31;;;;;;;;;;;18.50;93.60;;;;;;5004485;28;19914;-79
2021/10/03 12:58:57;;;;;;;;;;;18.50;93.70;;;;;;4998765;28;19909;-78